Terminal Aerodrome Forecast
Issued by NWS Corpus Christi, TX

Home | Current Version | Previous Version | Text Only | Print | Product List | Glossary On
Versions: 1 2 3 4 5 6 7 8 9 10 11 12 13 14 15 16 17 18
000
FTUS44 KCRP 231435 AAB
TAFCRP
TAF AMD
KCRP 231435Z 2315/2412 16015KT 6SM BR FEW003
     FM231600 17016G21KT P6SM FEW030
     FM231900 15019G27KT P6SM SKC
     FM240300 17012KT P6SM FEW020=

USA.gov is the U.S. government's official web portal to all federal, state and local government web resources and services.